createdAt,value
2022-11-24T00:01:17.833Z,100.00
2022-11-24T00:03:47.215Z,99.53
2022-11-24T00:06:15.641Z,99.97
2022-11-24T00:08:44.646Z,99.77
2022-11-24T00:11:17.921Z,92.37
2022-11-24T00:13:45.755Z,93.20
2022-11-24T00:16:15.881Z,89.84
2022-11-24T00:18:44.994Z,86.55
2022-11-24T00:21:13.596Z,85.64
2022-11-24T00:23:41.366Z,88.52
2022-11-24T00:26:11.311Z,95.00
2022-11-24T00:28:40.122Z,94.30
2022-11-24T00:31:21.749Z,88.49
2022-11-24T00:33:51.363Z,92.46
2022-11-24T00:36:22.377Z,87.41
2022-11-24T00:38:57.757Z,84.32
2022-11-24T00:41:26.153Z,83.59
2022-11-24T00:43:54.317Z,82.49
2022-11-24T00:46:22.041Z,83.17
2022-11-24T00:48:49.462Z,89.25
2022-11-24T00:51:18.594Z,93.03
2022-11-24T00:53:46.185Z,88.66
2022-11-24T00:56:14.025Z,84.79
2022-11-24T00:58:41.695Z,92.47
2022-11-24T01:01:12.649Z,88.99
2022-11-24T01:03:40.374Z,94.36
2022-11-24T01:06:12.055Z,96.30
2022-11-24T01:08:40.279Z,91.44
2022-11-24T01:11:20.718Z,94.57
2022-11-24T01:13:51.909Z,97.00
2022-11-24T01:16:22.593Z,95.96
2022-11-24T01:18:50.259Z,97.77
2022-11-24T01:21:18.160Z,100.00
2022-11-24T01:23:46.195Z,100.00
2022-11-24T01:26:16.268Z,95.64
2022-11-24T01:28:47.406Z,97.67
2022-11-24T01:31:15.669Z,100.00
2022-11-24T01:33:43.272Z,100.00
2022-11-24T01:36:10.683Z,96.54
2022-11-24T01:38:38.389Z,92.40
2022-11-24T01:41:17.933Z,94.88
2022-11-24T01:43:46.420Z,92.76
2022-11-24T01:46:28.006Z,96.17
2022-11-24T01:49:18.167Z,95.65
2022-11-24T01:52:01.363Z,93.28
2022-11-24T01:54:32.411Z,99.19
2022-11-24T01:57:09.761Z,100.00
2022-11-24T01:59:37.619Z,100.00
2022-11-24T02:02:05.101Z,96.40
2022-11-24T02:04:34.451Z,93.75
2022-11-24T02:07:03.638Z,97.57
2022-11-24T02:09:36.437Z,100.00
2022-11-24T02:12:04.916Z,93.11
2022-11-24T02:14:35.871Z,95.11
2022-11-24T02:17:03.932Z,96.00
2022-11-24T02:19:40.308Z,95.18
2022-11-24T02:22:13.373Z,93.93
2022-11-24T02:24:50.926Z,94.67
2022-11-24T02:27:19.359Z,93.96
2022-11-24T02:29:46.795Z,94.54
2022-11-24T02:32:14.442Z,93.50
2022-11-24T02:34:42.139Z,94.97
2022-11-24T02:37:09.509Z,93.10
2022-11-24T02:39:37.934Z,92.71
2022-11-24T02:42:08.931Z,92.10
2022-11-24T02:44:39.914Z,92.91
2022-11-24T02:47:10.416Z,92.82
2022-11-24T02:49:37.990Z,93.71
2022-11-24T02:52:05.987Z,95.67
2022-11-24T02:54:33.951Z,95.54
2022-11-24T02:57:01.538Z,95.86
2022-11-24T02:59:28.881Z,95.51
2022-11-24T03:01:56.516Z,93.95
2022-11-24T03:04:23.916Z,93.18
2022-11-24T03:06:51.537Z,93.09
2022-11-24T03:09:19.167Z,93.09
2022-11-24T03:11:46.618Z,92.84
2022-11-24T03:14:13.964Z,95.06
2022-11-24T03:16:41.566Z,92.45
2022-11-24T03:19:08.950Z,94.67
2022-11-24T03:21:36.713Z,92.49
2022-11-24T03:24:04.645Z,92.09
2022-11-24T03:26:34.158Z,91.99
2022-11-24T03:29:02.040Z,91.57
2022-11-24T03:31:29.814Z,92.30
2022-11-24T03:33:57.239Z,93.01
2022-11-24T03:36:24.721Z,92.82
2022-11-24T03:38:52.515Z,91.28
2022-11-24T03:41:19.869Z,90.16
2022-11-24T03:43:47.271Z,90.35
2022-11-24T03:46:14.993Z,91.01
2022-11-24T03:48:42.403Z,90.49
2022-11-24T03:51:10.314Z,90.79
2022-11-24T03:53:37.962Z,93.13
2022-11-24T03:56:05.378Z,90.98
2022-11-24T03:58:32.804Z,90.79
2022-11-24T04:01:00.415Z,91.99
2022-11-24T04:03:28.099Z,90.54
2022-11-24T04:05:55.488Z,90.83
2022-11-24T04:08:22.948Z,90.04
2022-11-24T04:10:52.452Z,90.57
2022-11-24T04:13:22.427Z,90.49
2022-11-24T04:15:50.088Z,90.95
2022-11-24T04:18:18.213Z,91.18
2022-11-24T04:20:45.858Z,90.89
2022-11-24T04:23:13.303Z,90.69
2022-11-24T04:25:43.469Z,90.99
2022-11-24T04:28:11.267Z,91.82
2022-11-24T04:30:40.493Z,89.90
2022-11-24T04:33:08.117Z,90.26
2022-11-24T04:35:35.514Z,89.99
2022-11-24T04:38:03.103Z,90.09
2022-11-24T04:40:30.749Z,90.12
2022-11-24T04:42:58.127Z,89.73
2022-11-24T04:45:25.460Z,90.27
2022-11-24T04:47:53.096Z,90.29
2022-11-24T04:50:20.830Z,90.15
2022-11-24T04:52:48.264Z,90.47
2022-11-24T04:55:15.934Z,90.12
2022-11-24T04:57:43.316Z,89.95
2022-11-24T05:00:11.563Z,91.00
2022-11-24T05:02:39.354Z,89.60
2022-11-24T05:05:07.371Z,89.19
2022-11-24T05:07:35.022Z,88.59
2022-11-24T05:10:21.439Z,88.15
2022-11-24T05:12:56.565Z,87.75
2022-11-24T05:15:24.206Z,87.87
2022-11-24T05:17:51.877Z,86.69
2022-11-24T05:20:19.763Z,86.81
2022-11-24T05:22:47.451Z,86.69
2022-11-24T05:25:14.831Z,85.80
2022-11-24T05:27:42.211Z,86.33
2022-11-24T05:30:10.347Z,86.38
2022-11-24T05:32:37.667Z,83.27
2022-11-24T05:35:05.448Z,83.48
2022-11-24T05:37:33.088Z,83.58
2022-11-24T05:40:00.416Z,81.73
2022-11-24T05:42:47.181Z,81.11
2022-11-24T05:45:17.999Z,80.92
2022-11-24T05:47:46.167Z,81.13
2022-11-24T05:50:15.218Z,82.89
2022-11-24T05:52:43.204Z,80.33
2022-11-24T05:55:11.104Z,79.33
2022-11-24T05:57:38.419Z,79.77
2022-11-24T06:00:07.196Z,78.90
2022-11-24T06:02:39.839Z,79.97
2022-11-24T06:05:07.822Z,82.13
2022-11-24T06:07:35.199Z,79.75
2022-11-24T06:10:02.750Z,79.70
2022-11-24T06:12:30.382Z,80.00
2022-11-24T06:14:57.758Z,79.48
2022-11-24T06:17:25.425Z,82.05
2022-11-24T06:19:53.081Z,82.11
2022-11-24T06:22:20.470Z,82.29
2022-11-24T06:24:47.853Z,82.62
2022-11-24T06:27:15.420Z,80.94
2022-11-24T06:29:42.951Z,79.67
2022-11-24T06:32:10.249Z,79.62
2022-11-24T06:34:37.903Z,82.09
2022-11-24T06:37:05.241Z,79.48
2022-11-24T06:39:32.792Z,79.97
2022-11-24T06:42:00.447Z,80.50
2022-11-24T06:44:27.795Z,80.93
2022-11-24T06:46:55.301Z,82.17
2022-11-24T06:49:23.284Z,82.32
2022-11-24T06:51:50.815Z,82.77
2022-11-24T06:54:21.138Z,83.14
2022-11-24T06:56:48.794Z,83.51
2022-11-24T06:59:18.674Z,82.75
2022-11-24T07:01:47.605Z,82.55
2022-11-24T07:04:15.554Z,82.25
2022-11-24T07:06:43.601Z,81.90
2022-11-24T07:09:12.110Z,81.96
2022-11-24T07:11:40.182Z,82.31
2022-11-24T07:14:07.640Z,82.35
2022-11-24T07:16:35.797Z,81.39
2022-11-24T07:19:03.619Z,81.18
2022-11-24T07:21:31.026Z,81.25
2022-11-24T07:23:58.829Z,81.51
2022-11-24T07:26:26.669Z,80.05
2022-11-24T07:28:54.148Z,80.00
2022-11-24T07:31:25.061Z,80.00
2022-11-24T07:33:54.509Z,79.30
2022-11-24T07:36:22.809Z,78.79
2022-11-24T07:38:50.211Z,78.79
2022-11-24T07:41:22.175Z,77.86
2022-11-24T07:43:50.655Z,78.34
2022-11-24T07:46:19.544Z,80.90
2022-11-24T07:48:47.302Z,78.33
2022-11-24T07:51:15.644Z,78.14
2022-11-24T07:53:43.833Z,77.23
2022-11-24T07:56:13.227Z,77.77
2022-11-24T07:58:40.612Z,83.05
2022-11-24T08:01:16.557Z,79.43
2022-11-24T08:03:45.201Z,78.31
2022-11-24T08:06:35.379Z,78.85
2022-11-24T08:09:00.682Z,79.49
2022-11-24T08:11:28.426Z,79.50
2022-11-24T08:13:55.801Z,78.85
2022-11-24T08:16:23.679Z,79.33
2022-11-24T08:18:54.085Z,79.80
2022-11-24T08:21:23.443Z,80.04
2022-11-24T08:23:56.067Z,80.17
2022-11-24T08:26:24.978Z,79.66
2022-11-24T08:28:55.248Z,78.07
2022-11-24T08:31:22.929Z,78.85
2022-11-24T08:33:50.340Z,79.56
2022-11-24T08:36:19.058Z,81.04
2022-11-24T08:38:46.597Z,78.06
2022-11-24T08:41:15.452Z,79.60
2022-11-24T08:43:43.189Z,78.63
2022-11-24T08:46:13.247Z,79.27
2022-11-24T08:48:41.582Z,78.31
2022-11-24T08:51:15.500Z,78.66
2022-11-24T08:53:43.479Z,78.68
2022-11-24T08:56:12.098Z,79.08
2022-11-24T08:58:40.134Z,78.27
2022-11-24T09:01:15.471Z,78.37
2022-11-24T09:03:50.098Z,78.72
2022-11-24T09:06:19.464Z,78.94
2022-11-24T09:08:47.082Z,80.91
2022-11-24T09:11:16.533Z,78.27
2022-11-24T09:13:44.153Z,77.36
2022-11-24T09:16:17.271Z,77.11
2022-11-24T09:18:45.761Z,76.92
2022-11-24T09:21:18.912Z,77.27
2022-11-24T09:23:50.687Z,76.83
2022-11-24T09:26:19.580Z,76.00
2022-11-24T09:28:47.210Z,78.46
2022-11-24T09:31:17.149Z,76.67
2022-11-24T09:33:45.541Z,76.24
2022-11-24T09:36:13.513Z,75.39
2022-11-24T09:38:41.056Z,76.42
2022-11-24T09:41:17.530Z,76.87
2022-11-24T09:44:09.294Z,76.68
2022-11-24T09:46:55.804Z,77.75
2022-11-24T09:49:51.503Z,77.84
2022-11-24T09:52:26.611Z,78.02
2022-11-24T09:54:58.921Z,78.96
2022-11-24T09:57:31.473Z,78.80
2022-11-24T10:00:10.066Z,78.88
2022-11-24T10:02:39.339Z,77.30
2022-11-24T10:05:07.392Z,79.75
2022-11-24T10:07:43.966Z,76.49
2022-11-24T10:10:15.760Z,75.63
2022-11-24T10:12:54.047Z,75.80
2022-11-24T10:15:51.766Z,76.28
2022-11-24T10:18:27.917Z,80.10
2022-11-24T10:21:30.971Z,78.77
2022-11-24T10:24:12.605Z,78.06
2022-11-24T10:26:45.645Z,77.41
2022-11-24T10:29:13.736Z,79.27
2022-11-24T10:31:43.222Z,80.21
2022-11-24T10:34:14.585Z,78.57
2022-11-24T10:36:54.435Z,78.38
2022-11-24T10:39:37.005Z,79.17
2022-11-24T10:42:14.505Z,79.65
2022-11-24T10:44:42.247Z,79.54
2022-11-24T10:47:19.088Z,79.19
2022-11-24T10:49:56.925Z,79.20
2022-11-24T10:52:25.657Z,79.24
2022-11-24T10:54:58.653Z,80.44
2022-11-24T10:57:32.291Z,80.18
2022-11-24T11:00:00.553Z,79.99
2022-11-24T11:02:32.366Z,80.01
2022-11-24T11:05:31.583Z,77.63
2022-11-24T11:08:14.560Z,78.69
2022-11-24T11:10:43.422Z,77.08
2022-11-24T11:13:23.341Z,78.39
2022-11-24T11:15:51.459Z,79.71
2022-11-24T11:18:19.992Z,75.98
2022-11-24T11:20:55.047Z,75.41
2022-11-24T11:23:26.951Z,75.05
2022-11-24T11:26:22.601Z,75.02
2022-11-24T11:35:12.075Z,75.28
2022-11-24T11:37:39.397Z,74.31
2022-11-24T11:40:14.340Z,73.85
2022-11-24T11:43:01.844Z,73.63
2022-11-24T11:45:38.182Z,76.23
2022-11-24T11:48:26.996Z,74.77
2022-11-24T11:51:22.268Z,73.82
2022-11-24T11:54:06.781Z,77.04
2022-11-24T11:57:06.636Z,77.39
2022-11-24T11:59:55.030Z,77.05
2022-11-24T12:02:59.570Z,76.31
2022-11-24T12:05:33.194Z,75.73
2022-11-24T12:08:21.494Z,75.25
2022-11-24T12:10:57.342Z,76.69
2022-11-24T12:13:43.373Z,75.77
2022-11-24T12:16:48.051Z,76.43
2022-11-24T12:19:48.656Z,77.03
2022-11-24T12:22:42.655Z,77.46
2022-11-24T12:25:26.591Z,77.95
2022-11-24T12:28:06.859Z,77.18
2022-11-24T12:31:08.993Z,77.58
2022-11-24T12:33:50.925Z,77.13
2022-11-24T12:36:41.566Z,76.01
2022-11-24T12:39:19.686Z,75.23
2022-11-24T12:41:54.772Z,75.93
2022-11-24T12:44:47.224Z,75.90
2022-11-24T12:47:33.242Z,75.22
2022-11-24T12:50:13.352Z,77.22
2022-11-24T12:52:46.042Z,75.77
2022-11-24T12:55:18.983Z,74.08
2022-11-24T12:57:56.175Z,74.16
2022-11-24T13:00:31.425Z,73.34
2022-11-24T13:03:17.526Z,74.91
2022-11-24T13:05:51.629Z,74.22
2022-11-24T13:08:19.401Z,73.13
2022-11-24T13:14:02.435Z,74.60
2022-11-24T13:16:48.728Z,74.57
2022-11-24T13:19:21.061Z,74.59
2022-11-24T13:21:56.828Z,75.02
2022-11-24T13:24:30.873Z,75.62
2022-11-24T13:27:14.203Z,76.14
2022-11-24T13:29:46.062Z,77.86
2022-11-24T13:32:17.657Z,75.92
2022-11-24T13:34:49.875Z,75.29
2022-11-24T13:37:33.550Z,77.11
2022-11-24T13:40:12.393Z,76.17
2022-11-24T13:42:58.820Z,75.49
2022-11-24T13:45:49.608Z,76.45
2022-11-24T13:48:20.493Z,75.76
2022-11-24T13:50:51.094Z,75.53
2022-11-24T13:53:34.886Z,75.17
2022-11-24T13:56:15.084Z,75.77
2022-11-24T13:58:47.440Z,75.71
2022-11-24T14:01:16.392Z,76.38
2022-11-24T14:04:21.609Z,76.49
2022-11-24T14:06:48.493Z,78.52
2022-11-24T14:09:47.963Z,75.32
2022-11-24T14:12:20.969Z,75.22
2022-11-24T14:14:50.304Z,74.47
2022-11-24T14:17:23.179Z,76.42
2022-11-24T14:19:52.800Z,74.10
2022-11-24T14:22:24.443Z,75.36
2022-11-24T14:24:56.555Z,75.95
2022-11-24T14:27:30.618Z,75.67
2022-11-24T14:30:03.825Z,75.22
2022-11-24T14:32:31.600Z,76.45
2022-11-24T14:34:59.464Z,77.11
2022-11-24T14:37:26.930Z,76.49
2022-11-24T14:39:54.303Z,77.10
2022-11-24T14:42:24.328Z,76.04
2022-11-24T14:44:51.765Z,76.05
2022-11-24T14:47:30.218Z,77.50
2022-11-24T14:50:08.061Z,76.47
2022-11-24T14:52:35.828Z,76.51
2022-11-24T14:55:21.946Z,76.83
2022-11-24T14:57:52.741Z,77.41
2022-11-24T15:00:29.871Z,75.61
2022-11-24T15:03:17.146Z,74.10
2022-11-24T15:05:59.259Z,74.92
2022-11-24T15:08:28.484Z,75.10
2022-11-24T15:11:01.196Z,75.74
2022-11-24T15:13:32.827Z,74.46
2022-11-24T15:16:08.317Z,74.20
2022-11-24T15:18:39.572Z,73.00
2022-11-24T15:21:07.865Z,73.95
2022-11-24T15:23:36.459Z,73.53
2022-11-24T15:26:03.838Z,73.31
2022-11-24T15:28:31.661Z,72.77
2022-11-24T15:31:04.604Z,73.13
2022-11-24T15:33:32.698Z,74.06
2022-11-24T15:36:00.067Z,75.13
2022-11-24T15:38:27.470Z,73.58
2022-11-24T15:40:57.890Z,72.58
2022-11-24T15:43:44.583Z,72.02
2022-11-24T15:46:12.651Z,73.07
2022-11-24T15:48:40.002Z,72.74
2022-11-24T15:51:11.953Z,73.71
2022-11-24T15:53:42.303Z,75.11
2022-11-24T15:56:16.015Z,75.32
2022-11-24T15:58:43.609Z,75.10
2022-11-24T16:01:10.940Z,74.92
2022-11-24T16:03:47.150Z,76.59
2022-11-24T16:06:24.115Z,75.81
2022-11-24T16:08:53.985Z,76.62
2022-11-24T16:11:21.874Z,77.93
2022-11-24T16:13:53.080Z,77.98
2022-11-24T16:16:22.954Z,80.33
2022-11-24T16:18:50.761Z,79.47
2022-11-24T16:21:18.198Z,78.97
2022-11-24T16:23:46.563Z,79.49
2022-11-24T16:26:13.902Z,81.50
2022-11-24T16:28:42.312Z,84.24
2022-11-24T16:31:10.043Z,86.13
2022-11-24T16:33:40.668Z,86.64
2022-11-24T16:36:08.903Z,87.32
2022-11-24T16:38:36.682Z,85.96
2022-11-24T16:41:04.356Z,85.31
2022-11-24T16:43:32.181Z,87.20
2022-11-24T16:46:09.075Z,87.82
2022-11-24T16:48:37.144Z,86.91
2022-11-24T16:51:06.761Z,87.62
2022-11-24T16:53:34.148Z,86.45
2022-11-24T16:56:01.808Z,86.14
2022-11-24T16:58:30.104Z,83.99
2022-11-24T17:01:05.381Z,82.88
2022-11-24T17:03:33.866Z,85.79
2022-11-24T17:06:01.273Z,83.71
2022-11-24T17:08:36.184Z,83.68
2022-11-24T17:11:14.896Z,85.12
2022-11-24T17:13:42.655Z,79.80
2022-11-24T17:16:13.681Z,81.77
2022-11-24T17:18:41.847Z,79.73
2022-11-24T17:21:18.712Z,80.66
2022-11-24T17:23:49.137Z,79.44
2022-11-24T17:26:17.513Z,80.26
2022-11-24T17:28:45.097Z,81.02
2022-11-24T17:31:26.044Z,78.53
2022-11-24T17:33:56.467Z,82.52
2022-11-24T17:36:24.581Z,82.32
2022-11-24T17:38:52.599Z,82.19
2022-11-24T17:41:20.782Z,80.91
2022-11-24T17:43:50.601Z,86.02
2022-11-24T17:46:18.836Z,84.99
2022-11-24T17:48:47.342Z,81.10
2022-11-24T17:51:17.904Z,82.63
2022-11-24T17:53:47.318Z,81.33
2022-11-24T17:56:17.387Z,79.49
2022-11-24T17:58:45.100Z,79.78
2022-11-24T18:01:13.715Z,80.46
2022-11-24T18:03:41.948Z,84.13
2022-11-24T18:06:12.037Z,81.23
2022-11-24T18:08:41.398Z,81.88
2022-11-24T18:11:22.680Z,80.42
2022-11-24T18:14:01.224Z,80.14
2022-11-24T18:16:31.454Z,79.12
2022-11-24T18:19:10.744Z,78.37
2022-11-24T18:21:40.941Z,78.36
2022-11-24T18:24:10.336Z,76.38
2022-11-24T18:26:39.140Z,78.46
2022-11-24T18:29:08.184Z,79.22
2022-11-24T18:31:36.191Z,76.49
2022-11-24T18:34:05.691Z,76.37
2022-11-24T18:36:37.743Z,75.03
2022-11-24T18:39:07.581Z,75.70
2022-11-24T18:41:35.858Z,76.14
2022-11-24T18:44:07.747Z,75.93
2022-11-24T18:46:36.494Z,76.99
2022-11-24T18:49:04.797Z,76.33
2022-11-24T18:51:32.893Z,77.16
2022-11-24T18:54:04.225Z,77.18
2022-11-24T18:56:34.741Z,76.86
2022-11-24T18:59:04.186Z,77.64
2022-11-24T19:01:32.362Z,75.20
2022-11-24T19:04:02.097Z,80.93
2022-11-24T19:06:35.351Z,81.60
2022-11-24T19:09:08.709Z,79.90
2022-11-24T19:11:38.704Z,76.14
2022-11-24T19:14:09.130Z,76.96
2022-11-24T19:16:38.127Z,75.88
2022-11-24T19:19:06.400Z,76.56
2022-11-24T19:21:37.691Z,79.17
2022-11-24T19:24:07.276Z,80.58
2022-11-24T19:26:35.457Z,80.61
2022-11-24T19:29:04.577Z,80.41
2022-11-24T19:31:33.853Z,80.10
2022-11-24T19:34:03.120Z,79.85
2022-11-24T19:36:30.856Z,83.79
2022-11-24T19:39:00.292Z,82.33
2022-11-24T19:41:30.214Z,81.79
2022-11-24T19:43:59.140Z,82.71
2022-11-24T19:46:29.541Z,79.58
2022-11-24T19:49:00.242Z,83.31
2022-11-24T19:51:34.005Z,81.58
2022-11-24T19:54:03.180Z,80.25
2022-11-24T19:56:35.687Z,80.63
2022-11-24T19:59:05.697Z,80.21
2022-11-24T20:01:41.689Z,77.37
2022-11-24T20:04:12.714Z,77.19
2022-11-24T20:06:42.623Z,76.73
2022-11-24T20:09:15.894Z,75.66
2022-11-24T20:11:44.409Z,75.10
2022-11-24T20:14:14.582Z,74.36
2022-11-24T20:16:42.728Z,74.28
2022-11-24T20:19:13.398Z,74.78
2022-11-24T20:21:47.040Z,74.42
2022-11-24T20:24:16.653Z,75.04
2022-11-24T20:26:50.740Z,75.80
2022-11-24T20:29:19.358Z,75.80
2022-11-24T20:31:49.821Z,76.37
2022-11-24T20:34:23.896Z,77.14
2022-11-24T20:36:53.491Z,76.29
2022-11-24T20:39:26.284Z,73.90
2022-11-24T20:41:56.054Z,74.19
2022-11-24T20:44:25.325Z,74.69
2022-11-24T20:46:56.226Z,72.38
2022-11-24T20:49:25.452Z,71.62
2022-11-24T20:51:55.363Z,73.37
2022-11-24T20:54:23.873Z,73.52
2022-11-24T20:56:51.846Z,73.62
2022-11-24T20:59:22.252Z,74.57
2022-11-24T21:01:51.518Z,73.49
2022-11-24T21:04:25.762Z,74.32
2022-11-24T21:06:53.357Z,77.01
2022-11-24T21:09:21.759Z,75.21
2022-11-24T21:11:49.479Z,80.51
2022-11-24T21:14:16.988Z,82.82
2022-11-24T21:16:45.343Z,86.06
2022-11-24T21:19:14.977Z,86.74
2022-11-24T21:21:43.376Z,88.27
2022-11-24T21:24:16.462Z,89.04
2022-11-24T21:26:47.748Z,89.79
2022-11-24T21:29:22.371Z,89.80
2022-11-24T21:31:51.390Z,90.25
2022-11-24T21:34:19.460Z,89.91
2022-11-24T21:36:47.897Z,88.76
2022-11-24T21:39:15.831Z,85.43
2022-11-24T21:41:44.081Z,86.90
2022-11-24T21:44:13.430Z,86.37
2022-11-24T21:46:45.949Z,85.84
2022-11-24T21:49:18.652Z,86.82
2022-11-24T21:51:45.970Z,88.50
2022-11-24T21:54:13.293Z,88.70
2022-11-24T21:56:40.961Z,89.21
2022-11-24T21:59:08.618Z,87.28
2022-11-24T22:01:35.954Z,83.24
2022-11-24T22:04:03.614Z,82.14
2022-11-24T22:06:33.206Z,79.67
2022-11-24T22:09:01.728Z,81.20
2022-11-24T22:11:29.317Z,80.51
2022-11-24T22:13:56.881Z,80.91
2022-11-24T22:16:24.928Z,79.49
2022-11-24T22:18:52.804Z,80.61
2022-11-24T22:21:29.981Z,81.16
2022-11-24T22:23:57.672Z,82.11
2022-11-24T22:26:25.591Z,85.08
2022-11-24T22:28:57.076Z,84.61
2022-11-24T22:31:29.488Z,85.12
2022-11-24T22:33:57.787Z,82.47
2022-11-24T22:36:27.597Z,80.45
2022-11-24T22:38:56.198Z,84.62
2022-11-24T22:41:23.838Z,88.25
2022-11-24T22:43:51.603Z,86.05
2022-11-24T22:46:21.118Z,86.17
2022-11-24T22:48:49.922Z,88.05
2022-11-24T22:51:23.513Z,86.85
2022-11-24T22:53:53.428Z,89.66
2022-11-24T22:56:21.541Z,90.75
2022-11-24T22:58:48.956Z,89.84
2022-11-24T23:01:21.221Z,89.08
2022-11-24T23:03:49.472Z,84.45
2022-11-24T23:06:18.895Z,84.76
2022-11-24T23:08:46.657Z,84.09
2022-11-24T23:11:17.726Z,84.82
2022-11-24T23:13:45.053Z,84.95
2022-11-24T23:16:17.626Z,87.43
2022-11-24T23:18:49.878Z,83.27
2022-11-24T23:21:23.036Z,84.11
2022-11-24T23:23:51.201Z,79.35
2022-11-24T23:26:22.150Z,79.10
2022-11-24T23:28:49.515Z,79.49
2022-11-24T23:31:20.767Z,77.91
2022-11-24T23:33:48.265Z,79.55
2022-11-24T23:36:17.481Z,77.25
2022-11-24T23:38:45.449Z,79.67
2022-11-24T23:41:31.876Z,81.40
2022-11-24T23:44:00.150Z,81.68
2022-11-24T23:46:28.105Z,81.40
2022-11-24T23:48:56.332Z,80.54
2022-11-24T23:51:26.340Z,76.23
2022-11-24T23:53:54.346Z,77.39
2022-11-24T23:56:26.502Z,79.08
2022-11-24T23:58:54.241Z,79.48
